createdAt,value
2023-03-13T00:00:17.401Z,49.10
2023-03-13T00:01:17.395Z,45.20
2023-03-13T00:02:17.524Z,50.40
2023-03-13T00:03:17.368Z,44.80
2023-03-13T00:04:17.360Z,50.80
2023-03-13T00:05:17.382Z,58.60
2023-03-13T00:06:17.336Z,43.00
2023-03-13T00:07:17.326Z,42.40
2023-03-13T00:08:17.333Z,44.70
2023-03-13T00:09:17.302Z,53.70
2023-03-13T00:10:17.289Z,48.00
2023-03-13T00:11:17.285Z,46.50
2023-03-13T00:12:17.264Z,49.00
2023-03-13T00:13:17.256Z,48.30
2023-03-13T00:14:17.239Z,38.20
2023-03-13T00:15:17.338Z,57.30
2023-03-13T00:16:17.289Z,49.20
2023-03-13T00:17:17.208Z,43.50
2023-03-13T00:18:17.198Z,50.90
2023-03-13T00:19:17.185Z,47.50
2023-03-13T00:20:17.181Z,47.60
2023-03-13T00:21:17.178Z,52.30
2023-03-13T00:22:17.150Z,48.50
2023-03-13T00:23:17.142Z,51.20
2023-03-13T00:24:17.159Z,46.50
2023-03-13T00:25:17.118Z,48.90
2023-03-13T00:26:17.135Z,47.70
2023-03-13T00:27:17.097Z,51.00
2023-03-13T00:28:17.087Z,44.00
2023-03-13T00:29:17.093Z,48.50
2023-03-13T00:30:17.066Z,51.60
2023-03-13T00:31:17.164Z,63.00
2023-03-13T00:32:17.057Z,51.60
2023-03-13T00:33:17.030Z,54.20
2023-03-13T00:34:17.032Z,43.60
2023-03-13T00:35:17.129Z,43.40
2023-03-13T00:36:17.004Z,47.10
2023-03-13T00:37:16.984Z,50.40
2023-03-13T00:38:16.973Z,46.60
2023-03-13T00:39:16.978Z,49.70
2023-03-13T00:40:16.974Z,47.00
2023-03-13T00:41:16.949Z,48.10
2023-03-13T00:42:16.941Z,47.30
2023-03-13T00:43:16.921Z,56.40
2023-03-13T00:44:16.913Z,46.40
2023-03-13T00:45:16.897Z,54.90
2023-03-13T00:46:16.975Z,46.70
2023-03-13T00:47:16.873Z,55.20
2023-03-13T00:48:16.861Z,53.90
2023-03-13T00:49:16.860Z,49.50
2023-03-13T00:50:16.842Z,50.50
2023-03-13T00:51:16.830Z,50.50
2023-03-13T00:52:16.828Z,49.80
2023-03-13T00:53:16.806Z,48.30
2023-03-13T00:54:16.797Z,49.40
2023-03-13T00:55:16.785Z,56.60
2023-03-13T00:56:16.791Z,49.80
2023-03-13T00:57:16.772Z,56.40
2023-03-13T00:58:16.758Z,48.90
2023-03-13T00:59:16.753Z,55.80
2023-03-13T01:00:16.728Z,50.20
2023-03-13T01:01:16.769Z,51.50
2023-03-13T01:02:16.848Z,51.40
2023-03-13T01:03:16.884Z,55.60
2023-03-13T01:04:16.693Z,48.90
2023-03-13T01:05:16.675Z,45.50
2023-03-13T01:06:16.682Z,39.10
2023-03-13T01:07:16.660Z,48.20
2023-03-13T01:08:16.663Z,43.60
2023-03-13T01:09:16.660Z,39.70
2023-03-13T01:10:16.631Z,56.60
2023-03-13T01:11:16.616Z,48.80
2023-03-13T01:12:16.629Z,50.20
2023-03-13T01:13:16.592Z,48.60
2023-03-13T01:14:16.616Z,41.90
2023-03-13T01:15:16.568Z,47.40
2023-03-13T01:16:16.798Z,48.80
2023-03-13T01:17:16.557Z,46.00
2023-03-13T01:18:16.537Z,45.00
2023-03-13T01:19:16.557Z,53.60
2023-03-13T01:20:16.517Z,44.30
2023-03-13T01:21:16.536Z,52.10
2023-03-13T01:22:16.517Z,40.10
2023-03-13T01:23:16.482Z,43.10
2023-03-13T01:24:16.475Z,46.70
2023-03-13T01:25:16.468Z,44.70
2023-03-13T01:26:16.449Z,52.90
2023-03-13T01:27:16.463Z,50.30
2023-03-13T01:28:16.497Z,51.70
2023-03-13T01:29:16.427Z,50.00
2023-03-13T01:30:16.420Z,47.50
2023-03-13T01:31:16.445Z,46.20
2023-03-13T01:32:16.436Z,50.50
2023-03-13T01:33:16.372Z,51.40
2023-03-13T01:34:16.393Z,55.70
2023-03-13T01:35:16.362Z,47.60
2023-03-13T01:36:16.355Z,59.60
2023-03-13T01:37:16.350Z,55.80
2023-03-13T01:38:16.344Z,59.10
2023-03-13T01:39:16.313Z,51.10
2023-03-13T01:40:16.299Z,49.00
2023-03-13T01:41:16.306Z,59.50
2023-03-13T01:42:16.282Z,47.90
2023-03-13T01:43:26.098Z,56.90
2023-03-13T01:44:16.284Z,53.40
2023-03-13T01:45:16.240Z,49.10
2023-03-13T01:46:16.350Z,48.70
2023-03-13T01:47:16.224Z,48.60
2023-03-13T01:48:16.207Z,54.30
2023-03-13T01:49:16.200Z,63.00
2023-03-13T01:50:16.188Z,52.60
2023-03-13T01:51:16.202Z,53.00
2023-03-13T01:52:16.165Z,48.90
2023-03-13T01:53:16.155Z,48.10
2023-03-13T01:54:16.150Z,48.30
2023-03-13T01:55:16.172Z,55.80
2023-03-13T01:56:16.123Z,53.20
2023-03-13T01:57:16.114Z,46.40
2023-03-13T01:58:16.101Z,55.10
2023-03-13T01:59:16.087Z,53.50
2023-03-13T02:00:16.105Z,48.40
2023-03-13T02:01:16.147Z,48.30
2023-03-13T02:02:16.073Z,44.30
2023-03-13T02:03:16.063Z,45.40
2023-03-13T02:04:16.040Z,58.00
2023-03-13T02:05:16.038Z,48.80
2023-03-13T02:06:16.010Z,52.00
2023-03-13T02:07:16.003Z,54.50
2023-03-13T02:08:15.992Z,50.80
2023-03-13T02:09:15.980Z,50.20
2023-03-13T02:10:15.979Z,58.20
2023-03-13T02:11:15.960Z,47.10
2023-03-13T02:12:15.948Z,57.40
2023-03-13T02:13:15.933Z,53.10
2023-03-13T02:14:15.935Z,49.30
2023-03-13T02:15:15.919Z,46.70
2023-03-13T02:16:15.998Z,49.30
2023-03-13T02:17:15.886Z,57.40
2023-03-13T02:18:15.883Z,55.10
2023-03-13T02:19:15.860Z,44.40
2023-03-13T02:20:15.865Z,45.60
2023-03-13T02:21:15.838Z,56.50
2023-03-13T02:22:15.839Z,42.60
2023-03-13T02:23:15.819Z,49.40
2023-03-13T02:24:15.812Z,51.00
2023-03-13T02:25:15.795Z,55.10
2023-03-13T02:26:15.785Z,59.60
2023-03-13T02:27:15.778Z,48.40
2023-03-13T02:28:15.772Z,48.60
2023-03-13T02:29:15.756Z,51.00
2023-03-13T02:30:15.743Z,49.00
2023-03-13T02:31:15.796Z,42.80
2023-03-13T02:32:15.746Z,52.00
2023-03-13T02:33:15.730Z,56.70
2023-03-13T02:34:15.698Z,48.20
2023-03-13T02:35:15.690Z,56.60
2023-03-13T02:36:15.676Z,49.60
2023-03-13T02:37:15.661Z,51.30
2023-03-13T02:38:15.656Z,50.70
2023-03-13T02:39:15.639Z,49.30
2023-03-13T02:40:15.638Z,57.10
2023-03-13T02:41:15.616Z,45.30
2023-03-13T02:42:15.610Z,54.90
2023-03-13T02:43:15.594Z,52.80
2023-03-13T02:44:15.587Z,61.00
2023-03-13T02:45:15.573Z,56.90
2023-03-13T02:46:15.638Z,53.40
2023-03-13T02:47:15.553Z,52.70
2023-03-13T02:48:15.575Z,56.40
2023-03-13T02:49:15.532Z,57.10
2023-03-13T02:50:15.532Z,54.70
2023-03-13T02:51:15.511Z,44.60
2023-03-13T02:52:15.501Z,46.80
2023-03-13T02:53:15.490Z,48.70
2023-03-13T02:54:15.481Z,46.80
2023-03-13T02:55:15.478Z,54.50
2023-03-13T02:56:15.472Z,49.90
2023-03-13T02:57:15.451Z,44.40
2023-03-13T02:58:15.436Z,59.40
2023-03-13T02:59:15.438Z,53.10
2023-03-13T03:00:15.416Z,50.40
2023-03-13T03:01:15.532Z,53.00
2023-03-13T03:02:15.394Z,58.70
2023-03-13T03:03:15.387Z,47.60
2023-03-13T03:04:15.451Z,50.10
2023-03-13T03:05:15.359Z,56.90
2023-03-13T03:06:15.361Z,50.40
2023-03-13T03:07:15.338Z,47.10
2023-03-13T03:08:15.333Z,60.90
2023-03-13T03:09:15.321Z,48.90
2023-03-13T03:10:15.308Z,61.60
2023-03-13T03:11:15.298Z,52.10
2023-03-13T03:12:15.283Z,56.50
2023-03-13T03:13:15.277Z,51.00
2023-03-13T03:14:15.272Z,53.40
2023-03-13T03:15:15.254Z,57.70
2023-03-13T03:16:15.339Z,53.60
2023-03-13T03:17:15.238Z,53.00
2023-03-13T03:18:15.217Z,58.10
2023-03-13T03:19:15.214Z,75.80
2023-03-13T03:20:15.227Z,47.30
2023-03-13T03:21:15.193Z,52.40
2023-03-13T03:22:15.172Z,54.00
2023-03-13T03:23:15.157Z,56.10
2023-03-13T03:24:15.144Z,48.60
2023-03-13T03:25:15.130Z,64.20
2023-03-13T03:26:15.126Z,58.50
2023-03-13T03:27:15.121Z,61.80
2023-03-13T03:28:15.126Z,50.90
2023-03-13T03:29:15.087Z,49.80
2023-03-13T03:30:15.076Z,71.50
2023-03-13T03:31:15.213Z,66.80
2023-03-13T03:32:15.068Z,61.90
2023-03-13T03:33:15.048Z,57.30
2023-03-13T03:34:15.035Z,61.00
2023-03-13T03:35:15.020Z,63.10
2023-03-13T03:36:15.170Z,56.90
2023-03-13T03:37:14.998Z,68.00
2023-03-13T03:38:14.993Z,121.10
2023-03-13T03:39:14.996Z,62.40
2023-03-13T03:40:14.971Z,70.80
2023-03-13T03:41:14.957Z,82.40
2023-03-13T03:42:14.940Z,67.90
2023-03-13T03:43:14.928Z,63.30
2023-03-13T03:44:14.924Z,73.80
2023-03-13T03:45:14.907Z,140.70
2023-03-13T03:46:14.977Z,81.00
2023-03-13T03:47:15.084Z,88.50
2023-03-13T03:48:14.876Z,92.40
2023-03-13T03:49:14.862Z,75.90
2023-03-13T03:50:14.876Z,76.80
2023-03-13T03:51:14.840Z,82.50
2023-03-13T03:52:14.854Z,94.70
2023-03-13T03:53:14.819Z,83.90
2023-03-13T03:54:14.811Z,88.20
2023-03-13T03:55:14.802Z,98.50
2023-03-13T03:56:14.797Z,90.40
2023-03-13T03:57:14.778Z,195.40
2023-03-13T03:58:14.775Z,118.30
2023-03-13T03:59:14.754Z,89.00
2023-03-13T04:00:14.750Z,110.70
2023-03-13T04:01:14.737Z,94.00
2023-03-13T04:02:14.802Z,143.70
2023-03-13T04:03:14.796Z,83.60
2023-03-13T04:04:14.700Z,124.70
2023-03-13T04:05:14.691Z,70.50
2023-03-13T04:06:14.691Z,77.50
2023-03-13T04:07:14.685Z,99.60
2023-03-13T04:08:14.696Z,87.90
2023-03-13T04:09:14.646Z,98.50
2023-03-13T04:10:14.641Z,65.80
2023-03-13T04:11:14.627Z,113.50
2023-03-13T04:12:14.615Z,83.90
2023-03-13T04:13:14.615Z,72.00
2023-03-13T04:14:14.594Z,81.10
2023-03-13T04:15:14.579Z,77.30
2023-03-13T04:16:14.620Z,88.10
2023-03-13T04:17:14.560Z,157.60
2023-03-13T04:18:14.549Z,101.10
2023-03-13T04:19:14.536Z,104.10
2023-03-13T04:20:14.590Z,99.80
2023-03-13T04:21:14.517Z,85.40
2023-03-13T04:22:14.510Z,86.90
2023-03-13T04:23:14.496Z,140.70
2023-03-13T04:24:14.521Z,113.00
2023-03-13T04:25:14.488Z,198.60
2023-03-13T04:26:14.512Z,122.50
2023-03-13T04:27:14.534Z,96.10
2023-03-13T04:28:14.543Z,97.10
2023-03-13T04:29:14.581Z,100.70
2023-03-13T04:30:16.289Z,77.40
2023-03-13T04:31:14.671Z,88.70
2023-03-13T04:32:14.565Z,105.70
2023-03-13T04:33:14.386Z,72.40
2023-03-13T04:34:14.385Z,92.60
2023-03-13T04:35:14.406Z,119.20
2023-03-13T04:36:14.416Z,68.20
2023-03-13T04:37:14.344Z,97.90
2023-03-13T04:38:14.332Z,89.30
2023-03-13T04:39:14.321Z,137.70
2023-03-13T04:40:14.337Z,134.50
2023-03-13T04:41:14.298Z,208.40
2023-03-13T04:42:14.301Z,68.30
2023-03-13T04:43:14.273Z,92.00
2023-03-13T04:44:14.268Z,70.90
2023-03-13T04:45:14.251Z,59.30
2023-03-13T04:46:14.331Z,86.50
2023-03-13T04:47:14.232Z,94.00
2023-03-13T04:48:14.219Z,106.90
2023-03-13T04:49:14.214Z,62.00
2023-03-13T04:50:14.348Z,70.50
2023-03-13T04:51:14.414Z,51.00
2023-03-13T04:52:14.177Z,65.90
2023-03-13T04:53:14.162Z,70.00
2023-03-13T04:54:14.163Z,49.60
2023-03-13T04:55:14.144Z,51.10
2023-03-13T04:56:14.155Z,58.00
2023-03-13T04:57:14.122Z,64.80
2023-03-13T04:58:14.109Z,64.80
2023-03-13T04:59:14.106Z,53.60
2023-03-13T05:00:14.656Z,71.90
2023-03-13T05:01:14.131Z,56.30
2023-03-13T05:02:14.101Z,47.80
2023-03-13T05:03:14.056Z,123.40
2023-03-13T05:04:14.046Z,47.00
2023-03-13T05:05:14.153Z,44.50
2023-03-13T05:06:14.023Z,38.70
2023-03-13T05:07:14.013Z,39.00
2023-03-13T05:08:14.015Z,37.70
2023-03-13T05:09:13.989Z,44.00
2023-03-13T05:10:13.979Z,45.40
2023-03-13T05:11:13.966Z,41.00
2023-03-13T05:12:13.982Z,30.60
2023-03-13T05:13:13.950Z,34.20
2023-03-13T05:14:13.937Z,56.20
2023-03-13T05:15:13.921Z,35.90
2023-03-13T05:16:13.994Z,42.30
2023-03-13T05:17:13.920Z,31.80
2023-03-13T05:18:13.892Z,29.20
2023-03-13T05:19:13.881Z,33.20
2023-03-13T05:20:13.867Z,31.70
2023-03-13T05:21:13.862Z,49.30
2023-03-13T05:22:13.845Z,34.60
2023-03-13T05:23:13.839Z,39.40
2023-03-13T05:24:13.833Z,52.20
2023-03-13T05:25:14.022Z,46.30
2023-03-13T05:26:13.802Z,37.50
2023-03-13T05:27:13.801Z,38.90
2023-03-13T05:28:13.811Z,47.00
2023-03-13T05:29:13.769Z,31.70
2023-03-13T05:30:13.757Z,39.50
2023-03-13T05:31:13.820Z,35.80
2023-03-13T05:32:13.736Z,28.00
2023-03-13T05:33:13.727Z,23.00
2023-03-13T05:34:13.720Z,51.80
2023-03-13T05:35:13.702Z,31.30
2023-03-13T05:36:13.690Z,45.40
2023-03-13T05:37:13.687Z,30.60
2023-03-13T05:38:13.675Z,35.50
2023-03-13T05:39:13.666Z,31.80
2023-03-13T05:40:13.651Z,46.50
2023-03-13T05:41:13.635Z,35.10
2023-03-13T05:42:13.624Z,68.70
2023-03-13T05:43:13.633Z,26.10
2023-03-13T05:44:13.638Z,35.70
2023-03-13T05:45:13.647Z,30.90
2023-03-13T05:46:13.594Z,34.10
2023-03-13T05:47:13.597Z,27.00
2023-03-13T05:48:13.567Z,32.90
2023-03-13T05:49:13.550Z,28.40
2023-03-13T05:50:13.536Z,23.40
2023-03-13T05:51:13.525Z,34.90
2023-03-13T05:52:13.517Z,26.50
2023-03-13T05:53:13.504Z,23.00
2023-03-13T05:54:15.517Z,24.30
2023-03-13T05:55:13.479Z,26.70
2023-03-13T05:56:13.467Z,26.60
2023-03-13T05:57:13.465Z,37.10
2023-03-13T05:58:13.447Z,31.40
2023-03-13T05:59:13.435Z,23.50
2023-03-13T06:00:13.452Z,27.90
2023-03-13T06:01:13.412Z,27.50
2023-03-13T06:02:13.414Z,27.60
2023-03-13T06:03:14.382Z,23.60
2023-03-13T06:04:13.514Z,29.30
2023-03-13T06:05:13.368Z,28.90
2023-03-13T06:06:13.361Z,27.00
2023-03-13T06:07:13.348Z,23.20
2023-03-13T06:08:13.332Z,27.30
2023-03-13T06:09:13.326Z,26.10
2023-03-13T06:10:13.305Z,25.80
2023-03-13T06:11:13.299Z,25.90
2023-03-13T06:12:13.289Z,29.00
2023-03-13T06:13:19.841Z,56.80
2023-03-13T06:14:14.302Z,29.30
2023-03-13T06:15:13.253Z,29.40
2023-03-13T06:16:13.339Z,27.90
2023-03-13T06:17:13.240Z,30.50
2023-03-13T06:18:13.217Z,22.00
2023-03-13T06:19:13.260Z,24.80
2023-03-13T06:20:13.197Z,33.60
2023-03-13T06:21:13.192Z,28.20
2023-03-13T06:22:13.178Z,36.60
2023-03-13T06:23:13.163Z,36.00
2023-03-13T06:24:13.158Z,29.90
2023-03-13T06:25:13.140Z,35.20
2023-03-13T06:26:13.134Z,53.30
2023-03-13T06:27:13.131Z,22.40
2023-03-13T06:28:13.108Z,47.10
2023-03-13T06:29:13.103Z,67.40
2023-03-13T06:30:13.085Z,24.40
2023-03-13T06:31:13.148Z,26.90
2023-03-13T06:32:13.167Z,27.00
2023-03-13T06:33:13.144Z,28.10
2023-03-13T06:34:13.043Z,46.90
2023-03-13T06:35:13.038Z,28.20
2023-03-13T06:36:13.088Z,34.70
2023-03-13T06:37:13.011Z,26.00
2023-03-13T06:38:12.997Z,27.30
2023-03-13T06:39:12.991Z,23.10
2023-03-13T06:40:13.000Z,25.10
2023-03-13T06:41:12.972Z,35.10
2023-03-13T06:42:12.960Z,26.80
2023-03-13T06:43:12.965Z,28.00
2023-03-13T06:44:12.930Z,31.20
2023-03-13T06:45:12.920Z,45.60
2023-03-13T06:46:12.915Z,29.60
2023-03-13T06:47:15.343Z,27.80
2023-03-13T06:48:12.909Z,36.50
2023-03-13T06:49:12.892Z,40.30
2023-03-13T06:50:12.880Z,26.80
2023-03-13T06:51:12.859Z,30.90
2023-03-13T06:52:12.856Z,36.50
2023-03-13T06:53:12.836Z,53.20
2023-03-13T06:54:12.827Z,38.40
2023-03-13T06:55:12.815Z,24.60
2023-03-13T06:56:12.801Z,30.20
2023-03-13T06:57:12.792Z,28.80
2023-03-13T06:58:25.401Z,28.60
2023-03-13T06:59:12.788Z,27.70
2023-03-13T07:00:12.758Z,60.50
2023-03-13T07:01:12.881Z,23.90
2023-03-13T07:02:12.749Z,26.50
2023-03-13T07:03:12.725Z,23.20
2023-03-13T07:04:12.851Z,20.30
2023-03-13T07:05:12.706Z,25.20
2023-03-13T07:06:12.744Z,24.00
2023-03-13T07:07:25.632Z,23.60
2023-03-13T07:08:13.745Z,22.10
2023-03-13T07:09:12.673Z,30.20
2023-03-13T07:10:12.648Z,27.00
2023-03-13T07:11:12.650Z,38.50
2023-03-13T07:12:12.631Z,30.20
2023-03-13T07:13:12.625Z,24.00
2023-03-13T07:14:17.136Z,25.40
2023-03-13T07:15:12.609Z,21.10
2023-03-13T07:16:12.715Z,32.80
2023-03-13T07:17:12.653Z,18.10
2023-03-13T07:18:12.578Z,26.50
2023-03-13T07:19:12.556Z,26.70
2023-03-13T07:20:12.644Z,18.70
2023-03-13T07:21:12.640Z,18.80
2023-03-13T07:22:12.523Z,20.20
2023-03-13T07:23:12.510Z,20.10
2023-03-13T07:24:12.646Z,20.80
2023-03-13T07:25:12.520Z,28.50
2023-03-13T07:26:12.589Z,25.90
2023-03-13T07:27:12.675Z,21.20
2023-03-13T07:28:12.545Z,20.30
2023-03-13T07:29:12.448Z,22.20
2023-03-13T07:30:12.432Z,18.30
2023-03-13T07:31:12.543Z,28.80
2023-03-13T07:32:12.410Z,22.50
2023-03-13T07:33:12.402Z,17.30
2023-03-13T07:34:12.389Z,18.40
2023-03-13T07:35:12.379Z,20.10
2023-03-13T07:36:12.469Z,24.10
2023-03-13T07:37:12.354Z,19.70
2023-03-13T07:38:12.354Z,14.50
2023-03-13T07:39:12.329Z,14.60
2023-03-13T07:40:12.317Z,15.30
2023-03-13T07:41:12.308Z,14.40
2023-03-13T07:42:12.297Z,17.40
2023-03-13T07:43:12.287Z,15.30
2023-03-13T07:44:12.287Z,16.30
2023-03-13T07:45:12.267Z,15.50
2023-03-13T07:46:12.292Z,17.40
2023-03-13T07:47:12.276Z,16.60
2023-03-13T07:48:12.256Z,20.00
2023-03-13T07:49:12.288Z,17.30
2023-03-13T07:50:12.748Z,15.80
2023-03-13T07:51:12.356Z,19.10
2023-03-13T07:52:12.983Z,17.60
2023-03-13T07:53:14.294Z,14.50
2023-03-13T07:54:12.206Z,14.80
2023-03-13T07:55:12.473Z,12.90
2023-03-13T07:56:12.172Z,16.50
2023-03-13T07:57:12.133Z,17.40
2023-03-13T07:58:12.134Z,16.70
2023-03-13T07:59:12.262Z,14.40
2023-03-13T08:00:12.103Z,16.30
2023-03-13T08:01:12.591Z,13.10
2023-03-13T08:02:12.127Z,13.20
2023-03-13T08:03:12.108Z,10.50
2023-03-13T08:04:12.053Z,14.50
2023-03-13T08:05:12.050Z,16.30
2023-03-13T08:06:12.044Z,13.70
2023-03-13T08:07:12.026Z,19.70
2023-03-13T08:08:12.038Z,14.50
2023-03-13T08:09:12.005Z,15.50
2023-03-13T08:10:11.994Z,17.30
2023-03-13T08:11:11.985Z,18.30
2023-03-13T08:12:11.966Z,16.20
2023-03-13T08:13:11.953Z,16.10
2023-03-13T08:14:11.941Z,15.90
2023-03-13T08:15:11.932Z,15.00
2023-03-13T08:16:12.089Z,18.00
2023-03-13T08:17:11.909Z,16.10
2023-03-13T08:18:11.898Z,18.80
2023-03-13T08:19:11.889Z,17.50
2023-03-13T08:20:11.874Z,15.60
2023-03-13T08:21:11.871Z,15.50
2023-03-13T08:22:11.855Z,18.70
2023-03-13T08:23:11.840Z,15.30
2023-03-13T08:24:11.859Z,14.30
2023-03-13T08:25:11.821Z,15.20
2023-03-13T08:26:11.807Z,18.20
2023-03-13T08:27:11.798Z,16.40
2023-03-13T08:28:11.793Z,15.40
2023-03-13T08:29:11.798Z,15.40
2023-03-13T08:30:11.763Z,18.40
2023-03-13T08:31:11.858Z,15.70
2023-03-13T08:32:11.747Z,20.50
2023-03-13T08:33:11.731Z,22.10
2023-03-13T08:34:11.723Z,28.60
2023-03-13T08:35:11.711Z,21.80
2023-03-13T08:36:11.701Z,17.90
2023-03-13T08:37:11.691Z,21.30
2023-03-13T08:38:11.672Z,19.40
2023-03-13T08:39:11.663Z,20.90
2023-03-13T08:40:11.712Z,20.30
2023-03-13T08:41:11.640Z,18.70
2023-03-13T08:42:11.637Z,21.80
2023-03-13T08:43:11.628Z,18.40
2023-03-13T08:44:11.622Z,20.50
2023-03-13T08:45:11.598Z,20.40
2023-03-13T08:46:11.658Z,20.90
2023-03-13T08:47:11.580Z,22.40
2023-03-13T08:48:11.675Z,17.10
2023-03-13T08:49:11.588Z,20.80
2023-03-13T08:50:11.550Z,21.20
2023-03-13T08:51:11.537Z,17.00
2023-03-13T08:52:11.526Z,24.50
2023-03-13T08:53:11.536Z,14.90
2023-03-13T08:54:11.513Z,15.10
2023-03-13T08:55:11.495Z,17.70
2023-03-13T08:56:11.507Z,27.90
2023-03-13T08:57:11.476Z,17.20
2023-03-13T08:58:11.456Z,14.60
2023-03-13T08:59:11.448Z,15.50
2023-03-13T09:00:11.437Z,12.80
2023-03-13T09:01:11.436Z,14.70
2023-03-13T09:02:11.466Z,16.20
2023-03-13T09:03:11.486Z,15.70
2023-03-13T09:04:11.480Z,17.20
2023-03-13T09:05:11.389Z,13.00
2023-03-13T09:06:11.376Z,15.50
2023-03-13T09:07:11.381Z,16.00
2023-03-13T09:08:11.348Z,13.70
2023-03-13T09:09:11.351Z,12.80
2023-03-13T09:10:11.340Z,17.80
2023-03-13T09:11:11.337Z,15.10
2023-03-13T09:12:24.564Z,17.00
2023-03-13T09:13:12.325Z,16.80
2023-03-13T09:14:11.281Z,25.70
2023-03-13T09:15:11.305Z,14.00
2023-03-13T09:16:11.420Z,15.00
2023-03-13T09:17:11.268Z,14.00
2023-03-13T09:18:11.291Z,11.90
2023-03-13T09:19:11.237Z,15.90
2023-03-13T09:20:11.237Z,15.80
2023-03-13T09:21:11.212Z,15.60
2023-03-13T09:22:11.196Z,15.40
2023-03-13T09:23:11.195Z,14.30
2023-03-13T09:24:11.172Z,19.70
2023-03-13T09:25:11.168Z,21.30
2023-03-13T09:26:11.148Z,19.50
2023-03-13T09:27:11.138Z,22.70
2023-03-13T09:28:11.150Z,15.80
2023-03-13T09:29:11.118Z,18.20
2023-03-13T09:30:11.111Z,18.40
2023-03-13T09:31:11.144Z,13.60
2023-03-13T09:32:11.082Z,15.60
2023-03-13T09:33:11.077Z,15.20
2023-03-13T09:34:11.079Z,19.60
2023-03-13T09:35:11.059Z,16.50
2023-03-13T09:36:11.115Z,15.90
2023-03-13T09:37:11.034Z,14.10
2023-03-13T09:38:11.017Z,18.00
2023-03-13T09:39:11.002Z,13.90
2023-03-13T09:40:11.002Z,15.20
2023-03-13T09:41:10.988Z,11.50
2023-03-13T09:42:10.971Z,15.40
2023-03-13T09:43:10.967Z,17.60
2023-03-13T09:44:10.977Z,13.50
2023-03-13T09:45:10.940Z,16.40
2023-03-13T09:46:10.965Z,15.30
2023-03-13T09:47:10.919Z,148.60
2023-03-13T09:48:10.903Z,23.60
2023-03-13T09:49:10.897Z,19.90
2023-03-13T09:50:10.884Z,23.50
2023-03-13T09:51:10.877Z,51.00
2023-03-13T09:52:10.962Z,23.90
2023-03-13T09:53:10.847Z,13.50
2023-03-13T09:54:10.838Z,12.00
2023-03-13T09:55:10.823Z,23.90
2023-03-13T09:56:10.814Z,10.50
2023-03-13T09:57:10.942Z,11.30
2023-03-13T09:58:10.792Z,8.50
2023-03-13T09:59:10.837Z,10.50
2023-03-13T10:00:10.817Z,7.30
2023-03-13T10:01:10.779Z,9.20
2023-03-13T10:02:10.760Z,7.70
2023-03-13T10:03:10.757Z,11.60
2023-03-13T10:04:10.803Z,11.30
2023-03-13T10:05:10.716Z,8.60
2023-03-13T10:06:10.701Z,9.40
2023-03-13T10:07:10.716Z,8.20
2023-03-13T10:08:10.685Z,8.40
2023-03-13T10:09:10.704Z,8.00
2023-03-13T10:10:10.658Z,7.90
2023-03-13T10:11:10.652Z,7.20
2023-03-13T10:12:10.639Z,9.80
2023-03-13T10:13:10.626Z,11.20
2023-03-13T10:14:10.632Z,9.40
2023-03-13T10:15:10.609Z,6.50
2023-03-13T10:16:10.719Z,10.60
2023-03-13T10:17:10.585Z,10.00
2023-03-13T10:18:10.575Z,8.70
2023-03-13T10:19:10.566Z,8.80
2023-03-13T10:20:10.553Z,5.80
2023-03-13T10:21:10.538Z,7.10
2023-03-13T10:22:10.529Z,9.00
2023-03-13T10:23:10.520Z,6.60
2023-03-13T10:24:10.509Z,7.50
2023-03-13T10:25:10.520Z,8.10
2023-03-13T10:26:10.481Z,5.40
2023-03-13T10:27:10.473Z,6.30
2023-03-13T10:28:10.471Z,5.60
2023-03-13T10:29:10.448Z,6.00
2023-03-13T10:30:10.440Z,6.70
2023-03-13T10:31:10.512Z,8.00
2023-03-13T10:32:10.439Z,7.80
2023-03-13T10:33:10.407Z,7.80
2023-03-13T10:34:10.397Z,6.90
2023-03-13T10:35:10.387Z,8.20
2023-03-13T10:36:10.520Z,6.60
2023-03-13T10:37:10.379Z,5.10
2023-03-13T10:38:10.379Z,6.30
2023-03-13T10:39:10.366Z,5.90
2023-03-13T10:40:10.336Z,9.60
2023-03-13T10:41:10.327Z,8.00
2023-03-13T10:42:10.311Z,7.40
2023-03-13T10:43:10.295Z,6.80
2023-03-13T10:44:10.283Z,8.80
2023-03-13T10:45:10.274Z,6.60
2023-03-13T10:46:10.347Z,7.70
2023-03-13T10:47:10.259Z,6.80
2023-03-13T10:48:10.286Z,8.40
2023-03-13T10:49:10.232Z,7.90
2023-03-13T10:50:10.216Z,7.30
2023-03-13T10:51:10.205Z,8.20
2023-03-13T10:52:10.209Z,6.30
2023-03-13T10:53:10.185Z,5.70
2023-03-13T10:54:10.191Z,6.40
2023-03-13T10:55:10.165Z,8.10
2023-03-13T10:56:10.167Z,8.50
2023-03-13T10:57:10.159Z,7.80
2023-03-13T10:58:10.131Z,7.60
2023-03-13T10:59:10.121Z,7.60
2023-03-13T11:00:10.115Z,5.80
2023-03-13T11:01:10.093Z,7.60
2023-03-13T11:02:10.114Z,6.30
2023-03-13T11:03:10.285Z,7.20
2023-03-13T11:04:10.084Z,6.60
2023-03-13T11:05:12.432Z,5.80
2023-03-13T11:06:10.041Z,6.00
2023-03-13T11:07:10.062Z,7.90
2023-03-13T11:08:10.082Z,8.10
2023-03-13T11:09:10.020Z,7.70
2023-03-13T11:10:09.999Z,6.30
2023-03-13T11:11:10.007Z,12.20
2023-03-13T11:12:09.985Z,5.90
2023-03-13T11:13:09.962Z,5.10
2023-03-13T11:14:09.957Z,5.40
2023-03-13T11:15:10.006Z,6.10
2023-03-13T11:16:09.991Z,10.80
2023-03-13T11:17:09.920Z,9.70
2023-03-13T11:18:09.910Z,6.30
2023-03-13T11:19:09.898Z,8.60
2023-03-13T11:20:09.914Z,4.60
2023-03-13T11:21:18.167Z,5.30
2023-03-13T11:22:11.001Z,6.50
2023-03-13T11:23:09.864Z,8.10
2023-03-13T11:24:09.845Z,5.10
2023-03-13T11:25:09.836Z,7.20
2023-03-13T11:26:09.825Z,7.70
2023-03-13T11:27:09.879Z,7.00
2023-03-13T11:28:09.806Z,5.40
2023-03-13T11:29:09.808Z,6.50
2023-03-13T11:30:09.790Z,6.00
2023-03-13T11:31:09.819Z,6.40
2023-03-13T11:32:09.756Z,5.40
2023-03-13T11:33:09.745Z,6.60
2023-03-13T11:34:09.733Z,5.70
2023-03-13T11:35:09.721Z,5.60
2023-03-13T11:36:09.790Z,8.80
2023-03-13T11:37:09.700Z,6.70
2023-03-13T11:38:09.693Z,6.80
2023-03-13T11:39:09.681Z,6.80
2023-03-13T11:40:09.668Z,9.10
2023-03-13T11:41:09.764Z,6.10
2023-03-13T11:42:09.645Z,7.70
2023-03-13T11:43:24.140Z,8.80
2023-03-13T11:44:10.657Z,4.70
2023-03-13T11:45:09.644Z,5.60
2023-03-13T11:46:09.826Z,6.30
2023-03-13T11:47:09.696Z,7.50
2023-03-13T11:48:09.588Z,7.10
2023-03-13T11:49:09.599Z,7.90
2023-03-13T11:50:09.613Z,4.80
2023-03-13T11:51:09.764Z,6.30
2023-03-13T11:52:09.672Z,6.40
2023-03-13T11:53:09.723Z,6.10
2023-03-13T11:54:09.682Z,6.20
2023-03-13T11:55:09.671Z,6.60
2023-03-13T11:56:09.508Z,5.40
2023-03-13T11:57:09.496Z,6.20
2023-03-13T11:58:09.476Z,6.00
2023-03-13T11:59:09.457Z,6.90
2023-03-13T12:00:09.449Z,6.50
2023-03-13T12:01:09.606Z,7.50
2023-03-13T12:02:09.493Z,6.80
2023-03-13T12:03:09.446Z,6.90
2023-03-13T12:04:09.408Z,7.80
2023-03-13T12:05:09.469Z,7.60
2023-03-13T12:06:21.854Z,5.70
2023-03-13T12:07:09.371Z,4.90
2023-03-13T12:08:09.391Z,6.80
2023-03-13T12:09:09.352Z,6.20
2023-03-13T12:10:09.349Z,5.60
2023-03-13T12:11:09.329Z,7.70
2023-03-13T12:12:09.324Z,6.20
2023-03-13T12:13:09.309Z,8.30
2023-03-13T12:14:09.299Z,6.60
2023-03-13T12:15:09.283Z,5.60
2023-03-13T12:16:09.336Z,7.30
2023-03-13T12:17:09.274Z,6.40
2023-03-13T12:18:09.286Z,8.10
2023-03-13T12:19:09.252Z,9.10
2023-03-13T12:20:09.281Z,6.20
2023-03-13T12:21:09.217Z,5.10
2023-03-13T12:22:09.268Z,7.90
2023-03-13T12:23:09.200Z,8.30
2023-03-13T12:24:09.327Z,7.00
2023-03-13T12:25:09.193Z,7.10
2023-03-13T12:26:09.194Z,5.60
2023-03-13T12:27:09.160Z,4.60
2023-03-13T12:28:09.156Z,5.90
2023-03-13T12:29:09.141Z,7.30
2023-03-13T12:30:09.137Z,9.90
2023-03-13T12:31:09.216Z,7.00
2023-03-13T12:32:09.133Z,5.90
2023-03-13T12:33:09.097Z,7.10
2023-03-13T12:34:09.106Z,6.40
2023-03-13T12:35:09.083Z,7.10
2023-03-13T12:36:09.165Z,4.70
2023-03-13T12:37:09.050Z,6.30
2023-03-13T12:38:09.071Z,7.00
2023-03-13T12:39:09.031Z,5.80
2023-03-13T12:40:11.655Z,5.80
2023-03-13T12:41:09.009Z,7.60
2023-03-13T12:42:09.008Z,7.00
2023-03-13T12:43:08.997Z,6.30
2023-03-13T12:44:09.656Z,6.70
2023-03-13T12:45:08.966Z,6.60
2023-03-13T12:46:09.121Z,4.90
2023-03-13T12:47:08.973Z,5.30
2023-03-13T12:48:08.976Z,5.30
2023-03-13T12:49:08.944Z,8.00
2023-03-13T12:50:08.918Z,8.60
2023-03-13T12:51:08.898Z,6.30
2023-03-13T12:52:08.889Z,7.20
2023-03-13T12:53:08.880Z,5.60
2023-03-13T12:54:08.968Z,5.90
2023-03-13T12:55:08.865Z,7.60
2023-03-13T12:56:08.965Z,8.10
2023-03-13T12:57:08.843Z,5.90